createdAt,value
2017-04-06T00:00:38.183Z,0
2017-04-06T00:01:46.269Z,0
2017-04-06T00:02:54.430Z,0
2017-04-06T00:04:02.445Z,0
2017-04-06T00:05:10.529Z,0
2017-04-06T00:06:18.621Z,0
2017-04-06T00:07:26.704Z,0
2017-04-06T00:08:34.788Z,0
2017-04-06T00:09:42.882Z,0
2017-04-06T00:10:50.971Z,0
2017-04-06T00:11:59.057Z,0
2017-04-06T00:13:07.141Z,0
2017-04-06T00:14:15.236Z,0
2017-04-06T00:15:23.323Z,0
2017-04-06T00:16:31.406Z,0
2017-04-06T00:17:39.502Z,0
2017-04-06T00:18:47.584Z,0
2017-04-06T00:19:55.693Z,0
2017-04-06T00:21:03.754Z,0
2017-04-06T00:22:11.846Z,0
2017-04-06T00:23:19.931Z,0
2017-04-06T00:24:28.012Z,0
2017-04-06T00:25:36.106Z,0
2017-04-06T00:26:44.195Z,0
2017-04-06T00:27:52.282Z,0
2017-04-06T00:29:00.367Z,0
2017-04-06T00:30:08.466Z,0
2017-04-06T00:31:16.552Z,0
2017-04-06T00:32:24.634Z,0
2017-04-06T00:33:32.728Z,0
2017-04-06T00:34:40.814Z,0
2017-04-06T00:35:48.908Z,0
2017-04-06T00:36:57.022Z,0
2017-04-06T00:38:05.077Z,0
2017-04-06T00:39:13.161Z,0
2017-04-06T00:40:21.249Z,0
2017-04-06T00:41:29.338Z,0
2017-04-06T00:42:37.424Z,0
2017-04-06T00:43:45.511Z,0
2017-04-06T00:44:53.598Z,0
2017-04-06T00:46:01.688Z,0
2017-04-06T00:47:09.774Z,0
2017-04-06T00:48:17.858Z,0
2017-04-06T00:49:25.956Z,0
2017-04-06T00:50:34.037Z,0
2017-04-06T00:51:42.122Z,0
2017-04-06T00:52:50.210Z,0
2017-04-06T00:53:58.299Z,0
2017-04-06T00:55:06.387Z,0
2017-04-06T00:56:14.468Z,0
2017-04-06T00:57:22.562Z,0
2017-04-06T00:58:30.648Z,0
2017-04-06T00:59:38.738Z,0
2017-04-06T01:00:46.825Z,0
2017-04-06T01:01:54.909Z,0
2017-04-06T01:03:02.999Z,0
2017-04-06T01:04:11.080Z,0
2017-04-06T01:05:19.170Z,0
2017-04-06T01:06:27.256Z,0
2017-04-06T01:07:35.339Z,0
2017-04-06T01:08:43.427Z,0
2017-04-06T01:09:51.517Z,0
2017-04-06T01:10:59.601Z,0
2017-04-06T01:12:07.685Z,0
2017-04-06T01:13:15.780Z,0
2017-04-06T01:14:23.864Z,0
2017-04-06T01:15:31.950Z,0
2017-04-06T01:16:40.039Z,0
2017-04-06T01:17:48.126Z,0
2017-04-06T01:18:56.208Z,0
2017-04-06T01:20:04.291Z,0
2017-04-06T01:21:12.387Z,0
2017-04-06T01:22:20.470Z,0
2017-04-06T01:23:28.559Z,0
2017-04-06T01:24:36.644Z,0
2017-04-06T01:25:44.728Z,0
2017-04-06T01:26:52.814Z,0
2017-04-06T01:28:00.900Z,0
2017-04-06T01:29:08.992Z,0
2017-04-06T01:30:17.077Z,0
2017-04-06T01:31:25.170Z,0
2017-04-06T01:32:33.261Z,0
2017-04-06T01:33:41.348Z,0
2017-04-06T01:34:49.436Z,0
2017-04-06T01:35:57.518Z,0
2017-04-06T01:37:05.608Z,0
2017-04-06T01:38:13.695Z,0
2017-04-06T01:39:21.777Z,0
2017-04-06T01:40:29.881Z,0
2017-04-06T01:41:37.961Z,0
2017-04-06T01:42:46.048Z,0
2017-04-06T01:43:54.135Z,0
2017-04-06T01:45:02.228Z,0
2017-04-06T01:46:10.313Z,0
2017-04-06T01:47:18.401Z,0
2017-04-06T01:48:26.485Z,0
2017-04-06T01:49:34.624Z,0
2017-04-06T01:50:42.652Z,0
2017-04-06T01:51:50.747Z,0
2017-04-06T01:52:58.831Z,0
2017-04-06T01:54:06.914Z,0
2017-04-06T01:55:15.002Z,0
2017-04-06T01:56:23.099Z,0
2017-04-06T01:57:31.188Z,0
2017-04-06T01:58:39.270Z,0
2017-04-06T01:59:47.356Z,0
2017-04-06T02:00:55.449Z,0
2017-04-06T02:02:03.534Z,0
2017-04-06T02:03:11.619Z,0
2017-04-06T02:04:19.713Z,0
2017-04-06T02:05:27.802Z,0
2017-04-06T02:06:35.887Z,0
2017-04-06T02:07:43.973Z,0
2017-04-06T02:08:52.064Z,0
2017-04-06T02:10:00.150Z,0
2017-04-06T02:11:08.239Z,0
2017-04-06T02:12:16.330Z,0
2017-04-06T02:13:24.415Z,0
2017-04-06T02:14:32.507Z,0
2017-04-06T02:15:40.587Z,0
2017-04-06T02:16:48.681Z,0
2017-04-06T02:17:56.770Z,0
2017-04-06T02:19:04.858Z,0
2017-04-06T02:20:12.945Z,0
2017-04-06T02:21:21.036Z,0
2017-04-06T02:22:29.123Z,0
2017-04-06T02:23:37.209Z,0
2017-04-06T02:24:45.305Z,0
2017-04-06T02:25:53.388Z,0
2017-04-06T02:27:01.474Z,0
2017-04-06T02:28:09.574Z,0
2017-04-06T02:29:17.657Z,0
2017-04-06T02:30:25.744Z,0
2017-04-06T02:31:33.833Z,0
2017-04-06T02:32:41.924Z,0
2017-04-06T02:33:50.007Z,0
2017-04-06T02:34:58.092Z,0
2017-04-06T02:36:06.181Z,0
2017-04-06T02:37:14.267Z,0
2017-04-06T02:38:22.349Z,0
2017-04-06T02:39:30.437Z,0
2017-04-06T02:40:38.526Z,0
2017-04-06T02:41:46.610Z,0
2017-04-06T02:42:54.701Z,0
2017-04-06T02:44:02.786Z,0
2017-04-06T02:45:10.869Z,0
2017-04-06T02:46:18.955Z,0
2017-04-06T02:47:27.042Z,0
2017-04-06T02:48:35.153Z,0
2017-04-06T02:49:43.212Z,0
2017-04-06T02:50:51.299Z,0
2017-04-06T02:51:59.384Z,0
2017-04-06T02:53:07.468Z,0
2017-04-06T02:54:15.580Z,0
2017-04-06T02:55:23.639Z,0
2017-04-06T02:56:31.725Z,0
2017-04-06T02:57:39.841Z,0
2017-04-06T02:58:47.899Z,0
2017-04-06T02:59:55.986Z,0
2017-04-06T03:01:04.073Z,0
2017-04-06T03:02:12.157Z,0
2017-04-06T03:03:20.243Z,0
2017-04-06T03:04:28.323Z,0
2017-04-06T03:05:36.486Z,0
2017-04-06T03:06:44.500Z,0
2017-04-06T03:07:52.590Z,0
2017-04-06T03:09:00.675Z,0
2017-04-06T03:10:08.758Z,0
2017-04-06T03:11:16.848Z,0
2017-04-06T03:12:24.938Z,0
2017-04-06T03:13:33.028Z,0
2017-04-06T03:14:41.107Z,0
2017-04-06T03:15:49.197Z,0
2017-04-06T03:16:57.279Z,0
2017-04-06T03:18:05.365Z,0
2017-04-06T03:19:13.460Z,0
2017-04-06T03:20:21.539Z,0
2017-04-06T03:21:29.628Z,0
2017-04-06T03:22:37.784Z,0
2017-04-06T03:23:45.797Z,0
2017-04-06T03:24:53.883Z,0
2017-04-06T03:26:01.973Z,0
2017-04-06T03:27:10.055Z,0
2017-04-06T03:28:18.136Z,0
2017-04-06T03:29:26.223Z,0
2017-04-06T03:30:34.315Z,0
2017-04-06T03:31:42.403Z,0
2017-04-06T03:32:50.489Z,0
2017-04-06T03:33:58.574Z,0
2017-04-06T03:35:06.661Z,0
2017-04-06T03:36:14.761Z,0
2017-04-06T03:37:22.830Z,0
2017-04-06T03:38:30.926Z,0
2017-04-06T03:39:39.011Z,0
2017-04-06T03:40:47.095Z,0
2017-04-06T03:41:55.183Z,0
2017-04-06T03:43:03.270Z,0
2017-04-06T03:44:11.351Z,0
2017-04-06T03:45:19.432Z,0
2017-04-06T03:46:27.525Z,0
2017-04-06T03:47:35.615Z,0
2017-04-06T03:48:43.694Z,0
2017-04-06T03:49:51.782Z,0
2017-04-06T03:50:59.874Z,0
2017-04-06T03:52:07.951Z,0
2017-04-06T03:53:16.036Z,0
2017-04-06T03:54:24.125Z,0
2017-04-06T03:55:32.211Z,0
2017-04-06T03:56:40.290Z,0
2017-04-06T03:57:48.380Z,0
2017-04-06T03:58:56.464Z,0
2017-04-06T04:00:04.554Z,0
2017-04-06T04:01:12.633Z,0
2017-04-06T04:02:20.726Z,0
2017-04-06T04:03:28.804Z,0
2017-04-06T04:04:36.889Z,0
2017-04-06T04:05:44.982Z,0
2017-04-06T04:06:53.158Z,0
2017-04-06T04:08:01.152Z,0
2017-04-06T04:09:09.234Z,0
2017-04-06T04:10:17.323Z,0
2017-04-06T04:11:25.409Z,0
2017-04-06T04:12:33.495Z,0
2017-04-06T04:13:41.579Z,0
2017-04-06T04:14:49.665Z,0
2017-04-06T04:15:57.772Z,0
2017-04-06T04:17:05.834Z,0
2017-04-06T04:18:13.922Z,0
2017-04-06T04:19:22.008Z,0
2017-04-06T04:20:30.090Z,0
2017-04-06T04:21:38.238Z,0
2017-04-06T04:22:46.693Z,0
2017-04-06T04:23:54.366Z,0
2017-04-06T04:25:02.443Z,0
2017-04-06T04:26:10.538Z,0
2017-04-06T04:27:18.619Z,0
2017-04-06T04:28:26.802Z,0
2017-04-06T04:29:34.792Z,0
2017-04-06T04:30:42.890Z,0
2017-04-06T04:31:50.960Z,0
2017-04-06T04:32:59.045Z,0
2017-04-06T04:34:07.138Z,0
2017-04-06T04:35:15.512Z,0
2017-04-06T04:36:23.306Z,0
2017-04-06T04:37:31.395Z,0
2017-04-06T04:38:39.478Z,0
2017-04-06T04:39:47.568Z,0
2017-04-06T04:40:55.652Z,0
2017-04-06T04:42:03.761Z,0
2017-04-06T04:43:11.831Z,0
2017-04-06T04:44:19.916Z,0
2017-04-06T04:45:28.003Z,0
2017-04-06T04:46:36.090Z,0
2017-04-06T04:47:44.197Z,0
2017-04-06T04:48:52.265Z,0
2017-04-06T04:50:00.354Z,0
2017-04-06T04:51:08.434Z,0
2017-04-06T04:52:16.517Z,0
2017-04-06T04:53:24.607Z,0
2017-04-06T04:54:32.690Z,0
2017-04-06T04:55:40.773Z,0
2017-04-06T04:56:48.863Z,0
2017-04-06T04:57:56.950Z,0
2017-04-06T04:59:05.035Z,0
2017-04-06T05:00:13.116Z,0
2017-04-06T05:01:21.205Z,0
2017-04-06T05:02:29.290Z,4
2017-04-06T05:03:37.374Z,4
2017-04-06T05:04:45.458Z,4
2017-04-06T05:05:53.547Z,4
2017-04-06T05:07:01.624Z,4
2017-04-06T05:08:09.718Z,4
2017-04-06T05:09:17.810Z,4
2017-04-06T05:10:25.887Z,0
2017-04-06T05:11:33.974Z,0
2017-04-06T05:12:42.059Z,0
2017-04-06T05:13:50.142Z,0
2017-04-06T05:14:58.227Z,4
2017-04-06T05:16:06.309Z,4
2017-04-06T05:17:14.397Z,4
2017-04-06T05:18:22.482Z,4
2017-04-06T05:19:30.566Z,4
2017-04-06T05:20:38.652Z,4
2017-04-06T05:21:46.748Z,4
2017-04-06T05:22:54.834Z,4
2017-04-06T05:24:02.914Z,4
2017-04-06T05:25:11.601Z,4
2017-04-06T05:26:19.174Z,4
2017-04-06T05:27:27.348Z,4
2017-04-06T05:28:35.445Z,8
2017-04-06T05:31:59.506Z,8
2017-04-06T05:33:07.594Z,4
2017-04-06T05:34:15.679Z,4
2017-04-06T05:35:23.766Z,4
2017-04-06T05:36:31.851Z,4
2017-04-06T05:37:39.940Z,8
2017-04-06T05:38:48.022Z,8
2017-04-06T05:39:56.107Z,8
2017-04-06T05:41:04.197Z,8
2017-04-06T05:42:12.286Z,8
2017-04-06T05:43:20.362Z,8
2017-04-06T05:44:28.455Z,4
2017-04-06T05:45:36.534Z,8
2017-04-06T05:46:44.621Z,8
2017-04-06T05:47:52.707Z,8
2017-04-06T05:49:00.789Z,8
2017-04-06T05:50:08.874Z,12
2017-04-06T05:51:16.959Z,8
2017-04-06T05:52:25.074Z,8
2017-04-06T05:53:33.151Z,8
2017-04-06T05:54:41.508Z,12
2017-04-06T05:55:49.301Z,12
2017-04-06T05:56:57.387Z,12
2017-04-06T05:58:05.474Z,12
2017-04-06T05:59:13.552Z,12
2017-04-06T06:00:21.638Z,12
2017-04-06T06:01:29.724Z,12
2017-04-06T06:02:37.804Z,16
2017-04-06T06:03:45.898Z,16
2017-04-06T06:04:53.981Z,12
2017-04-06T06:06:02.063Z,12
2017-04-06T06:07:10.149Z,16
2017-04-06T06:08:18.232Z,16
2017-04-06T06:09:26.330Z,16
2017-04-06T06:10:34.408Z,16
2017-04-06T06:11:42.498Z,20
2017-04-06T06:12:50.574Z,16
2017-04-06T06:13:58.660Z,20
2017-04-06T06:15:06.743Z,24
2017-04-06T06:16:14.828Z,24
2017-04-06T06:17:22.913Z,28
2017-04-06T06:18:31.001Z,28
2017-04-06T06:19:39.087Z,28
2017-04-06T06:20:47.174Z,28
2017-04-06T06:21:55.256Z,32
2017-04-06T06:23:03.893Z,32
2017-04-06T06:24:11.671Z,28
2017-04-06T06:25:19.511Z,24
2017-04-06T06:26:27.590Z,28
2017-04-06T06:27:35.679Z,28
2017-04-06T06:28:43.768Z,32
2017-04-06T06:29:51.849Z,32
2017-04-06T06:30:59.935Z,32
2017-04-06T06:32:08.021Z,36
2017-04-06T06:33:16.103Z,32
2017-04-06T06:34:24.184Z,36
2017-04-06T06:35:32.272Z,40
2017-04-06T06:36:40.356Z,40
2017-04-06T06:37:48.438Z,44
2017-04-06T06:38:56.530Z,44
2017-04-06T06:40:04.613Z,48
2017-04-06T06:41:12.694Z,48
2017-04-06T06:42:20.778Z,44
2017-04-06T06:43:28.867Z,44
2017-04-06T06:44:36.949Z,44
2017-04-06T06:45:45.034Z,36
2017-04-06T06:46:53.123Z,36
2017-04-06T06:48:01.207Z,28
2017-04-06T06:49:09.291Z,36
2017-04-06T06:50:17.372Z,40
2017-04-06T06:51:25.461Z,32
2017-04-06T06:52:33.545Z,28
2017-04-06T06:53:41.628Z,32
2017-04-06T06:54:49.713Z,36
2017-04-06T06:55:57.801Z,44
2017-04-06T06:57:05.884Z,48
2017-04-06T06:58:14.055Z,48
2017-04-06T06:59:22.051Z,56
2017-04-06T07:00:30.140Z,60
2017-04-06T07:01:38.217Z,64
2017-04-06T07:02:46.305Z,64
2017-04-06T07:03:54.393Z,64
2017-04-06T07:05:02.698Z,60
2017-04-06T07:06:10.566Z,52
2017-04-06T07:07:18.655Z,44
2017-04-06T07:08:26.743Z,44
2017-04-06T07:09:34.825Z,40
2017-04-06T07:10:42.906Z,40
2017-04-06T07:11:50.993Z,44
2017-04-06T07:12:59.078Z,44
2017-04-06T07:14:07.159Z,44
2017-04-06T07:15:15.255Z,48
2017-04-06T07:16:23.327Z,44
2017-04-06T07:17:31.410Z,44
2017-04-06T07:18:39.496Z,44
2017-04-06T07:19:47.580Z,40
2017-04-06T07:20:55.671Z,44
2017-04-06T07:22:03.750Z,44
2017-04-06T07:23:11.844Z,48
2017-04-06T07:24:19.932Z,48
2017-04-06T07:25:28.049Z,48
2017-04-06T07:26:36.101Z,52
2017-04-06T07:27:44.190Z,52
2017-04-06T07:28:52.274Z,48
2017-04-06T07:30:00.656Z,52
2017-04-06T07:31:08.444Z,48
2017-04-06T07:32:16.531Z,48
2017-04-06T07:33:24.611Z,48
2017-04-06T07:35:40.784Z,48
2017-04-06T07:36:48.869Z,48
2017-04-06T07:37:56.949Z,52
2017-04-06T07:39:05.035Z,56
2017-04-06T07:40:13.116Z,52
2017-04-06T07:41:21.202Z,56
2017-04-06T07:42:29.289Z,60
2017-04-06T07:43:37.375Z,60
2017-04-06T07:44:45.457Z,56
2017-04-06T07:45:53.540Z,56
2017-04-06T07:47:01.630Z,56
2017-04-06T07:48:09.713Z,56
2017-04-06T07:49:18.364Z,56
2017-04-06T07:50:25.885Z,56
2017-04-06T07:51:33.968Z,56
2017-04-06T07:52:42.049Z,56
2017-04-06T07:53:50.140Z,56
2017-04-06T07:54:58.223Z,56
2017-04-06T07:56:06.318Z,56
2017-04-06T07:57:14.399Z,56
2017-04-06T07:58:22.489Z,52
2017-04-06T07:59:30.573Z,52
2017-04-06T08:00:38.657Z,52
2017-04-06T08:01:46.741Z,52
2017-04-06T08:02:54.826Z,48
2017-04-06T08:04:02.912Z,48
2017-04-06T08:05:10.997Z,48
2017-04-06T08:06:19.085Z,48
2017-04-06T08:07:27.167Z,48
2017-04-06T08:08:35.250Z,48
2017-04-06T08:09:43.339Z,48
2017-04-06T08:10:51.421Z,48
2017-04-06T08:11:59.510Z,48
2017-04-06T08:13:07.796Z,52
2017-04-06T08:14:15.677Z,48
2017-04-06T08:15:23.845Z,52
2017-04-06T08:16:31.845Z,48
2017-04-06T08:17:39.934Z,52
2017-04-06T08:18:48.149Z,48
2017-04-06T08:19:56.107Z,48
2017-04-06T08:21:04.188Z,48
2017-04-06T08:22:12.283Z,48
2017-04-06T08:23:20.443Z,48
2017-04-06T08:24:28.453Z,52
2017-04-06T08:25:36.599Z,52
2017-04-06T08:26:44.630Z,52
2017-04-06T08:27:52.715Z,48
2017-04-06T08:29:01.177Z,48
2017-04-06T08:30:08.898Z,52
2017-04-06T08:31:16.980Z,52
2017-04-06T08:32:25.061Z,52
2017-04-06T08:33:33.150Z,52
2017-04-06T08:34:41.237Z,52
2017-04-06T08:35:49.332Z,52
2017-04-06T08:36:57.401Z,52
2017-04-06T08:38:05.488Z,52
2017-04-06T08:39:13.593Z,52
2017-04-06T08:40:21.657Z,52
2017-04-06T08:41:29.747Z,56
2017-04-06T08:42:37.831Z,52
2017-04-06T08:43:45.918Z,32
2017-04-06T08:44:54.007Z,28
2017-04-06T08:46:02.099Z,28
2017-04-06T08:47:10.185Z,32
2017-04-06T08:48:18.270Z,40
2017-04-06T08:49:26.363Z,32
2017-04-06T08:50:34.484Z,36
2017-04-06T08:51:42.529Z,52
2017-04-06T08:52:50.614Z,52
2017-04-06T08:53:58.703Z,32
2017-04-06T08:55:06.791Z,44
2017-04-06T08:56:14.874Z,52
2017-04-06T08:57:22.966Z,52
2017-04-06T08:58:31.057Z,44
2017-04-06T08:59:39.141Z,32
2017-04-06T09:00:47.223Z,28
2017-04-06T09:01:55.306Z,28
2017-04-06T09:03:03.392Z,56
2017-04-06T09:04:11.477Z,44
2017-04-06T09:05:19.566Z,36
2017-04-06T09:06:27.657Z,40
2017-04-06T09:07:35.734Z,44
2017-04-06T09:08:43.821Z,60
2017-04-06T09:09:52.299Z,52
2017-04-06T09:10:59.991Z,40
2017-04-06T09:12:08.077Z,64
2017-04-06T09:13:16.160Z,68
2017-04-06T09:14:24.251Z,68
2017-04-06T09:15:32.325Z,68
2017-04-06T09:16:40.836Z,68
2017-04-06T09:17:48.499Z,64
2017-04-06T09:18:56.580Z,44
2017-04-06T09:20:04.665Z,48
2017-04-06T09:21:12.754Z,68
2017-04-06T09:22:20.853Z,68
2017-04-06T09:23:28.932Z,60
2017-04-06T09:24:37.015Z,44
2017-04-06T09:25:45.101Z,40
2017-04-06T09:26:53.274Z,44
2017-04-06T09:28:01.273Z,44
2017-04-06T09:29:09.360Z,60
2017-04-06T09:30:17.443Z,56
2017-04-06T09:31:25.524Z,56
2017-04-06T09:32:33.617Z,44
2017-04-06T09:33:41.706Z,44
2017-04-06T09:34:49.793Z,44
2017-04-06T09:35:57.871Z,40
2017-04-06T09:37:05.959Z,40
2017-04-06T09:38:14.045Z,40
2017-04-06T09:39:22.130Z,40
2017-04-06T09:40:30.220Z,40
2017-04-06T09:41:38.304Z,40
2017-04-06T09:42:46.383Z,44
2017-04-06T09:43:54.508Z,48
2017-04-06T09:45:02.555Z,48
2017-04-06T09:46:10.642Z,52
2017-04-06T09:47:18.725Z,60
2017-04-06T09:48:26.809Z,52
2017-04-06T09:49:34.894Z,64
2017-04-06T09:50:42.980Z,56
2017-04-06T09:51:51.065Z,44
2017-04-06T09:52:59.153Z,40
2017-04-06T09:54:07.239Z,40
2017-04-06T09:55:15.326Z,40
2017-04-06T09:56:23.414Z,44
2017-04-06T09:57:31.498Z,44
2017-04-06T09:58:39.586Z,44
2017-04-06T09:59:47.674Z,44
2017-04-06T10:00:55.787Z,40
2017-04-06T10:02:03.842Z,44
2017-04-06T10:03:11.925Z,40
2017-04-06T10:04:20.012Z,40
2017-04-06T10:05:28.098Z,44
2017-04-06T10:06:36.179Z,44
2017-04-06T10:07:44.266Z,44
2017-04-06T10:08:52.351Z,44
2017-04-06T10:10:00.793Z,44
2017-04-06T10:11:08.536Z,40
2017-04-06T10:12:16.608Z,40
2017-04-06T10:13:24.695Z,40
2017-04-06T10:14:32.772Z,44
2017-04-06T10:15:40.860Z,52
2017-04-06T10:16:48.944Z,76
2017-04-06T10:17:57.025Z,76
2017-04-06T10:19:05.111Z,84
2017-04-06T10:20:13.199Z,84
2017-04-06T10:21:21.282Z,84
2017-04-06T10:22:29.367Z,84
2017-04-06T10:23:37.455Z,64
2017-04-06T10:24:45.794Z,60
2017-04-06T10:25:53.948Z,60
2017-04-06T10:27:02.287Z,68
2017-04-06T10:28:09.878Z,60
2017-04-06T10:29:17.877Z,80
2017-04-06T10:30:25.959Z,88
2017-04-06T10:31:34.053Z,84
2017-04-06T10:32:42.130Z,76
2017-04-06T10:33:50.213Z,68
2017-04-06T10:34:58.298Z,48
2017-04-06T10:36:06.386Z,48
2017-04-06T10:37:14.473Z,48
2017-04-06T10:38:22.552Z,44
2017-04-06T10:39:30.641Z,40
2017-04-06T10:40:38.725Z,40
2017-04-06T10:41:46.805Z,36
2017-04-06T10:42:54.889Z,36
2017-04-06T10:44:02.984Z,36
2017-04-06T10:45:11.067Z,36
2017-04-06T10:46:19.150Z,40
2017-04-06T10:47:27.236Z,44
2017-04-06T10:48:35.321Z,40
2017-04-06T10:49:43.442Z,40
2017-04-06T10:50:51.613Z,40
2017-04-06T10:51:59.581Z,40
2017-04-06T10:53:07.664Z,40
2017-04-06T10:54:15.747Z,44
2017-04-06T10:55:23.839Z,44
2017-04-06T10:56:31.919Z,48
2017-04-06T10:57:40.011Z,76
2017-04-06T10:58:48.285Z,80
2017-04-06T10:59:56.179Z,76
2017-04-06T11:01:04.266Z,76
2017-04-06T11:02:12.343Z,76
2017-04-06T11:03:20.432Z,84
2017-04-06T11:04:28.519Z,56
2017-04-06T11:05:36.601Z,52
2017-04-06T11:06:44.682Z,52
2017-04-06T11:07:52.779Z,48
2017-04-06T11:09:00.862Z,48
2017-04-06T11:10:08.941Z,44
2017-04-06T11:11:17.028Z,48
2017-04-06T11:12:25.113Z,44
2017-04-06T11:13:33.200Z,44
2017-04-06T11:14:41.278Z,44
2017-04-06T11:15:49.365Z,48
2017-04-06T11:16:57.446Z,60
2017-04-06T11:18:05.534Z,68
2017-04-06T11:19:13.631Z,64
2017-04-06T11:20:21.715Z,60
2017-04-06T11:21:29.800Z,64
2017-04-06T11:22:37.884Z,44
2017-04-06T11:23:45.971Z,64
2017-04-06T11:24:54.052Z,48
2017-04-06T11:26:02.132Z,52
2017-04-06T11:27:10.219Z,36
2017-04-06T11:28:18.303Z,36
2017-04-06T11:29:26.389Z,36
2017-04-06T11:30:34.478Z,36
2017-04-06T11:31:42.596Z,36
2017-04-06T11:32:50.652Z,36
2017-04-06T11:33:58.735Z,36
2017-04-06T11:35:06.819Z,36
2017-04-06T11:36:14.906Z,36
2017-04-06T11:37:22.994Z,36
2017-04-06T11:38:31.075Z,36
2017-04-06T11:39:39.158Z,36
2017-04-06T11:40:47.247Z,36
2017-04-06T11:41:55.331Z,52
2017-04-06T11:43:03.425Z,64
2017-04-06T11:44:11.512Z,64
2017-04-06T11:45:19.590Z,64
2017-04-06T11:46:27.677Z,68
2017-04-06T11:47:35.762Z,64
2017-04-06T11:48:43.844Z,64
2017-04-06T11:49:51.933Z,64
2017-04-06T11:51:00.021Z,68
2017-04-06T11:52:08.794Z,52
2017-04-06T11:53:16.188Z,56
2017-04-06T11:54:24.275Z,56
2017-04-06T11:55:32.361Z,68
2017-04-06T11:56:40.446Z,64
2017-04-06T11:57:48.529Z,60
2017-04-06T11:58:56.616Z,60
2017-04-06T12:00:04.707Z,56
2017-04-06T12:01:12.791Z,36
2017-04-06T12:02:20.875Z,36
2017-04-06T12:03:28.964Z,36
2017-04-06T12:04:37.044Z,32
2017-04-06T12:05:45.128Z,32
2017-04-06T12:06:53.223Z,32
2017-04-06T12:08:01.308Z,32
2017-04-06T12:09:09.387Z,28
2017-04-06T12:10:17.484Z,32
2017-04-06T12:11:25.572Z,40
2017-04-06T12:12:33.657Z,36
2017-04-06T12:13:41.740Z,36
2017-04-06T12:14:49.831Z,40
2017-04-06T12:15:57.909Z,48
2017-04-06T12:17:05.996Z,52
2017-04-06T12:18:14.090Z,52
2017-04-06T12:19:22.172Z,56
2017-04-06T12:20:30.251Z,56
2017-04-06T12:21:38.346Z,48
2017-04-06T12:22:46.441Z,48
2017-04-06T12:23:54.514Z,48
2017-04-06T12:25:02.594Z,52
2017-04-06T12:26:10.681Z,52
2017-04-06T12:27:18.893Z,56
2017-04-06T12:28:26.849Z,56
2017-04-06T12:29:34.937Z,52
2017-04-06T12:30:43.023Z,52
2017-04-06T12:31:51.108Z,52
2017-04-06T12:32:59.188Z,52
2017-04-06T12:34:07.277Z,48
2017-04-06T12:35:15.362Z,52
2017-04-06T12:36:23.445Z,48
2017-04-06T12:37:31.529Z,40
2017-04-06T12:38:39.621Z,32
2017-04-06T12:39:47.701Z,28
2017-04-06T12:40:55.787Z,44
2017-04-06T12:42:03.877Z,48
2017-04-06T12:43:11.964Z,52
2017-04-06T12:44:20.042Z,52
2017-04-06T12:45:28.134Z,52
2017-04-06T12:46:36.244Z,32
2017-04-06T12:47:44.304Z,32
2017-04-06T12:48:52.383Z,48
2017-04-06T12:50:00.755Z,48
2017-04-06T12:51:08.561Z,48
2017-04-06T12:52:16.642Z,32
2017-04-06T12:53:24.730Z,32
2017-04-06T12:54:32.817Z,28
2017-04-06T12:55:40.898Z,36
2017-04-06T12:56:48.984Z,36
2017-04-06T12:57:57.069Z,36
2017-04-06T12:59:05.159Z,28
2017-04-06T13:00:13.237Z,44
2017-04-06T13:01:21.327Z,28
2017-04-06T13:02:29.417Z,28
2017-04-06T13:03:37.525Z,28
2017-04-06T13:04:45.586Z,28
2017-04-06T13:05:53.701Z,28
2017-04-06T13:07:01.762Z,28
2017-04-06T13:08:09.846Z,28
2017-04-06T13:09:17.931Z,24
2017-04-06T13:10:26.023Z,28
2017-04-06T13:11:34.109Z,28
2017-04-06T13:12:42.197Z,24
2017-04-06T13:13:50.284Z,28
2017-04-06T13:14:58.366Z,28
2017-04-06T13:16:06.451Z,32
2017-04-06T13:17:14.537Z,36
2017-04-06T13:18:22.622Z,44
2017-04-06T13:19:30.703Z,48
2017-04-06T13:20:38.790Z,44
2017-04-06T13:21:46.879Z,48
2017-04-06T13:22:54.964Z,48
2017-04-06T13:24:03.046Z,44
2017-04-06T13:25:11.135Z,48
2017-04-06T13:26:19.222Z,48
2017-04-06T13:27:27.302Z,48
2017-04-06T13:28:35.390Z,48
2017-04-06T13:29:43.479Z,48
2017-04-06T13:30:51.567Z,48
2017-04-06T13:31:59.652Z,48
2017-04-06T13:33:07.745Z,52
2017-04-06T13:34:15.829Z,52
2017-04-06T13:35:23.911Z,52
2017-04-06T13:36:31.995Z,48
2017-04-06T13:37:40.080Z,40
2017-04-06T13:38:48.160Z,36
2017-04-06T13:39:56.246Z,44
2017-04-06T13:41:04.340Z,28
2017-04-06T13:42:12.418Z,32
2017-04-06T13:43:20.509Z,32
2017-04-06T13:44:28.595Z,32
2017-04-06T13:45:36.679Z,32
2017-04-06T13:46:44.762Z,44
2017-04-06T13:47:52.846Z,36
2017-04-06T13:49:00.930Z,40
2017-04-06T13:50:09.016Z,48
2017-04-06T13:51:17.098Z,44
2017-04-06T13:52:25.187Z,48
2017-04-06T13:53:33.281Z,48
2017-04-06T13:54:41.354Z,48
2017-04-06T13:55:49.441Z,44
2017-04-06T13:56:57.531Z,48
2017-04-06T13:58:05.618Z,44
2017-04-06T13:59:13.701Z,48
2017-04-06T14:00:21.782Z,48
2017-04-06T14:01:29.867Z,44
2017-04-06T14:02:37.957Z,48
2017-04-06T14:03:46.039Z,48
2017-04-06T14:04:54.128Z,48
2017-04-06T14:06:02.215Z,52
2017-04-06T14:07:10.298Z,48
2017-04-06T14:08:18.385Z,44
2017-04-06T14:09:26.470Z,44
2017-04-06T14:10:34.559Z,44
2017-04-06T14:11:42.646Z,44
2017-04-06T14:12:50.737Z,44
2017-04-06T14:13:58.823Z,44
2017-04-06T14:15:07.264Z,44
2017-04-06T14:16:14.997Z,44
2017-04-06T14:17:23.080Z,48
2017-04-06T14:18:31.161Z,32
2017-04-06T14:19:39.247Z,44
2017-04-06T14:20:47.338Z,44
2017-04-06T14:21:55.418Z,44
2017-04-06T14:23:03.506Z,44
2017-04-06T14:24:11.589Z,40
2017-04-06T14:25:19.675Z,28
2017-04-06T14:26:27.760Z,44
2017-04-06T14:27:35.848Z,28
2017-04-06T14:28:43.931Z,32
2017-04-06T14:29:52.013Z,32
2017-04-06T14:31:00.100Z,28
2017-04-06T14:32:08.188Z,32
2017-04-06T14:33:16.268Z,32
2017-04-06T14:34:24.357Z,32
2017-04-06T14:35:32.441Z,32
2017-04-06T14:36:40.525Z,32
2017-04-06T14:37:48.611Z,28
2017-04-06T14:38:56.692Z,32
2017-04-06T14:40:04.782Z,32
2017-04-06T14:41:12.863Z,32
2017-04-06T14:42:20.945Z,36
2017-04-06T14:43:29.033Z,36
2017-04-06T14:44:37.118Z,32
2017-04-06T14:45:45.241Z,36
2017-04-06T14:46:53.287Z,36
2017-04-06T14:48:01.375Z,36
2017-04-06T14:49:09.461Z,36
2017-04-06T14:50:17.560Z,36
2017-04-06T14:51:25.631Z,40
2017-04-06T14:52:33.722Z,40
2017-04-06T14:53:41.798Z,44
2017-04-06T14:54:49.885Z,44
2017-04-06T14:55:57.979Z,40
2017-04-06T14:57:06.061Z,40
2017-04-06T14:58:14.156Z,40
2017-04-06T14:59:22.232Z,40
2017-04-06T15:00:30.318Z,36
2017-04-06T15:01:38.397Z,40
2017-04-06T15:02:46.482Z,36
2017-04-06T15:03:54.571Z,36
2017-04-06T15:05:02.653Z,32
2017-04-06T15:06:10.738Z,36
2017-04-06T15:07:18.830Z,44
2017-04-06T15:08:26.913Z,44
2017-04-06T15:09:34.997Z,44
2017-04-06T15:10:43.079Z,36
2017-04-06T15:11:51.171Z,44
2017-04-06T15:12:59.255Z,44
2017-04-06T15:14:07.338Z,40
2017-04-06T15:15:15.426Z,40
2017-04-06T15:16:23.518Z,44
2017-04-06T15:17:31.599Z,44
2017-04-06T15:18:39.683Z,40
2017-04-06T15:19:47.771Z,44
2017-04-06T15:20:55.855Z,44
2017-04-06T15:22:03.944Z,40
2017-04-06T15:23:12.029Z,36
2017-04-06T15:24:20.112Z,36
2017-04-06T15:25:28.195Z,36
2017-04-06T15:26:36.282Z,40
2017-04-06T15:27:44.365Z,36
2017-04-06T15:28:52.449Z,36
2017-04-06T15:30:00.651Z,40
2017-04-06T15:31:08.623Z,36
2017-04-06T15:32:16.712Z,32
2017-04-06T15:33:24.789Z,32
2017-04-06T15:34:32.874Z,28
2017-04-06T15:35:40.962Z,32
2017-04-06T15:36:49.053Z,28
2017-04-06T15:37:57.132Z,24
2017-04-06T15:39:05.220Z,28
2017-04-06T15:40:13.301Z,32
2017-04-06T15:41:21.393Z,36
2017-04-06T15:42:29.474Z,36
2017-04-06T15:43:37.558Z,32
2017-04-06T15:44:45.643Z,24
2017-04-06T15:45:53.728Z,28
2017-04-06T15:47:01.823Z,28
2017-04-06T15:48:09.903Z,24
2017-04-06T15:49:18.073Z,28
2017-04-06T15:50:26.072Z,28
2017-04-06T15:51:34.166Z,28
2017-04-06T15:52:42.238Z,28
2017-04-06T15:53:50.322Z,28
2017-04-06T15:54:58.411Z,32
2017-04-06T15:56:06.495Z,32
2017-04-06T15:57:14.579Z,32
2017-04-06T15:58:22.670Z,28
2017-04-06T15:59:30.753Z,28
2017-04-06T16:00:38.840Z,24
2017-04-06T16:01:46.924Z,28
2017-04-06T16:02:55.008Z,24
2017-04-06T16:04:03.089Z,20
2017-04-06T16:05:11.172Z,20
2017-04-06T16:06:19.346Z,20
2017-04-06T16:07:27.351Z,20
2017-04-06T16:08:35.446Z,24
2017-04-06T16:09:43.521Z,24
2017-04-06T16:10:51.608Z,20
2017-04-06T16:11:59.699Z,24
2017-04-06T16:13:07.784Z,24
2017-04-06T16:14:15.868Z,20
2017-04-06T16:15:23.956Z,20
2017-04-06T16:16:32.040Z,20
2017-04-06T16:17:40.123Z,20
2017-04-06T16:18:48.208Z,20
2017-04-06T16:19:56.297Z,16
2017-04-06T16:21:04.377Z,16
2017-04-06T16:22:12.464Z,20
2017-04-06T16:23:20.549Z,20
2017-04-06T16:24:28.636Z,20
2017-04-06T16:25:36.719Z,16
2017-04-06T16:26:44.802Z,16